sensor_id;sensor_type;location;lat;lon;timestamp;P1;durP1;ratioP1;P2;durP2;ratioP2
53261;SDS011;39658;51.090;-1.786;2023-05-10T00:00:56;23.15;;;6.05;;
53261;SDS011;39658;51.090;-1.786;2023-05-10T00:03:23;22.30;;;6.10;;
53261;SDS011;39658;51.090;-1.786;2023-05-10T00:05:50;22.17;;;6.10;;
53261;SDS011;39658;51.090;-1.786;2023-05-10T00:08:17;21.58;;;6.13;;
53261;SDS011;39658;51.090;-1.786;2023-05-10T00:10:45;30.65;;;6.90;;
53261;SDS011;39658;51.090;-1.786;2023-05-10T00:13:12;24.77;;;5.95;;
53261;SDS011;39658;51.090;-1.786;2023-05-10T00:15:39;23.48;;;4.97;;
53261;SDS011;39658;51.090;-1.786;2023-05-10T00:18:06;17.58;;;6.35;;
53261;SDS011;39658;51.090;-1.786;2023-05-10T00:20:32;21.45;;;5.68;;
53261;SDS011;39658;51.090;-1.786;2023-05-10T00:22:59;29.13;;;5.70;;
53261;SDS011;39658;51.090;-1.786;2023-05-10T00:25:26;24.80;;;5.68;;
53261;SDS011;39658;51.090;-1.786;2023-05-10T00:27:54;11.88;;;4.25;;
53261;SDS011;39658;51.090;-1.786;2023-05-10T00:30:22;13.85;;;5.57;;
53261;SDS011;39658;51.090;-1.786;2023-05-10T00:32:49;25.98;;;6.38;;
53261;SDS011;39658;51.090;-1.786;2023-05-10T00:35:16;23.70;;;6.15;;
53261;SDS011;39658;51.090;-1.786;2023-05-10T00:37:43;22.83;;;4.82;;
53261;SDS011;39658;51.090;-1.786;2023-05-10T00:40:10;17.17;;;4.78;;
53261;SDS011;39658;51.090;-1.786;2023-05-10T00:42:37;14.10;;;4.43;;
53261;SDS011;39658;51.090;-1.786;2023-05-10T00:45:06;23.15;;;4.85;;
53261;SDS011;39658;51.090;-1.786;2023-05-10T00:47:33;16.45;;;5.00;;
53261;SDS011;39658;51.090;-1.786;2023-05-10T00:50:01;16.40;;;4.38;;
53261;SDS011;39658;51.090;-1.786;2023-05-10T00:52:28;15.80;;;5.10;;
53261;SDS011;39658;51.090;-1.786;2023-05-10T00:54:55;13.82;;;4.03;;
53261;SDS011;39658;51.090;-1.786;2023-05-10T00:57:22;18.77;;;5.10;;
53261;SDS011;39658;51.090;-1.786;2023-05-10T00:59:49;13.35;;;5.18;;
53261;SDS011;39658;51.090;-1.786;2023-05-10T01:02:18;23.23;;;5.28;;
53261;SDS011;39658;51.090;-1.786;2023-05-10T01:04:45;19.30;;;5.57;;
53261;SDS011;39658;51.090;-1.786;2023-05-10T01:07:12;22.35;;;5.75;;
53261;SDS011;39658;51.090;-1.786;2023-05-10T01:09:39;13.43;;;4.95;;
53261;SDS011;39658;51.090;-1.786;2023-05-10T01:12:06;16.45;;;5.18;;
53261;SDS011;39658;51.090;-1.786;2023-05-10T01:14:33;23.58;;;5.35;;
53261;SDS011;39658;51.090;-1.786;2023-05-10T01:17:02;13.88;;;4.95;;
53261;SDS011;39658;51.090;-1.786;2023-05-10T01:19:32;16.15;;;5.50;;
53261;SDS011;39658;51.090;-1.786;2023-05-10T01:22:04;16.98;;;5.72;;
53261;SDS011;39658;51.090;-1.786;2023-05-10T01:24:44;21.08;;;5.78;;
53261;SDS011;39658;51.090;-1.786;2023-05-10T01:27:43;12.77;;;3.85;;
53261;SDS011;39658;51.090;-1.786;2023-05-10T01:30:44;15.82;;;6.22;;
53261;SDS011;39658;51.090;-1.786;2023-05-10T01:33:32;12.07;;;4.68;;
53261;SDS011;39658;51.090;-1.786;2023-05-10T01:36:07;23.20;;;5.55;;
53261;SDS011;39658;51.090;-1.786;2023-05-10T01:38:41;17.90;;;4.93;;
53261;SDS011;39658;51.090;-1.786;2023-05-10T01:41:16;12.85;;;4.13;;
53261;SDS011;39658;51.090;-1.786;2023-05-10T01:43:48;23.83;;;4.88;;
53261;SDS011;39658;51.090;-1.786;2023-05-10T01:46:24;30.23;;;5.57;;
53261;SDS011;39658;51.090;-1.786;2023-05-10T01:48:57;10.00;;;3.63;;
53261;SDS011;39658;51.090;-1.786;2023-05-10T01:51:25;21.00;;;4.25;;
53261;SDS011;39658;51.090;-1.786;2023-05-10T01:53:58;14.60;;;3.90;;
53261;SDS011;39658;51.090;-1.786;2023-05-10T01:56:26;14.77;;;3.70;;
53261;SDS011;39658;51.090;-1.786;2023-05-10T01:58:56;18.67;;;4.32;;
53261;SDS011;39658;51.090;-1.786;2023-05-10T02:01:24;10.18;;;2.88;;
53261;SDS011;39658;51.090;-1.786;2023-05-10T02:03:53;12.02;;;3.90;;
53261;SDS011;39658;51.090;-1.786;2023-05-10T02:06:23;26.80;;;3.13;;
53261;SDS011;39658;51.090;-1.786;2023-05-10T02:08:51;10.50;;;2.92;;
53261;SDS011;39658;51.090;-1.786;2023-05-10T02:11:20;19.27;;;3.50;;
53261;SDS011;39658;51.090;-1.786;2023-05-10T02:13:48;7.80;;;3.22;;
53261;SDS011;39658;51.090;-1.786;2023-05-10T02:16:16;9.60;;;2.55;;
53261;SDS011;39658;51.090;-1.786;2023-05-10T02:18:44;14.50;;;2.78;;
53261;SDS011;39658;51.090;-1.786;2023-05-10T02:21:12;12.25;;;3.10;;
53261;SDS011;39658;51.090;-1.786;2023-05-10T02:23:43;20.13;;;3.20;;
53261;SDS011;39658;51.090;-1.786;2023-05-10T02:26:11;8.85;;;2.70;;
53261;SDS011;39658;51.090;-1.786;2023-05-10T02:28:40;9.35;;;2.65;;
53261;SDS011;39658;51.090;-1.786;2023-05-10T02:31:08;7.85;;;3.00;;
53261;SDS011;39658;51.090;-1.786;2023-05-10T02:33:37;10.90;;;2.85;;
53261;SDS011;39658;51.090;-1.786;2023-05-10T02:36:06;5.65;;;2.65;;
53261;SDS011;39658;51.090;-1.786;2023-05-10T02:38:35;6.85;;;2.50;;
53261;SDS011;39658;51.090;-1.786;2023-05-10T02:41:04;8.23;;;2.60;;
53261;SDS011;39658;51.090;-1.786;2023-05-10T02:43:34;12.95;;;2.85;;
53261;SDS011;39658;51.090;-1.786;2023-05-10T02:46:01;11.57;;;2.10;;
53261;SDS011;39658;51.090;-1.786;2023-05-10T02:48:28;10.40;;;3.53;;
53261;SDS011;39658;51.090;-1.786;2023-05-10T02:50:56;10.45;;;2.65;;
53261;SDS011;39658;51.090;-1.786;2023-05-10T02:53:33;6.47;;;1.95;;
53261;SDS011;39658;51.090;-1.786;2023-05-10T02:56:07;17.08;;;3.35;;
53261;SDS011;39658;51.090;-1.786;2023-05-10T02:58:39;17.75;;;3.35;;
53261;SDS011;39658;51.090;-1.786;2023-05-10T03:01:06;18.40;;;2.30;;
53261;SDS011;39658;51.090;-1.786;2023-05-10T03:03:33;21.80;;;2.58;;
53261;SDS011;39658;51.090;-1.786;2023-05-10T03:06:00;12.27;;;2.95;;
53261;SDS011;39658;51.090;-1.786;2023-05-10T03:08:27;15.52;;;1.80;;
53261;SDS011;39658;51.090;-1.786;2023-05-10T03:10:57;15.02;;;2.92;;
53261;SDS011;39658;51.090;-1.786;2023-05-10T03:13:36;12.63;;;2.15;;
53261;SDS011;39658;51.090;-1.786;2023-05-10T03:16:12;6.22;;;2.25;;
53261;SDS011;39658;51.090;-1.786;2023-05-10T03:18:42;14.30;;;2.88;;
53261;SDS011;39658;51.090;-1.786;2023-05-10T03:21:14;10.75;;;2.45;;
53261;SDS011;39658;51.090;-1.786;2023-05-10T03:23:45;10.45;;;2.30;;
53261;SDS011;39658;51.090;-1.786;2023-05-10T03:26:20;15.23;;;2.28;;
53261;SDS011;39658;51.090;-1.786;2023-05-10T03:28:51;8.88;;;2.08;;
53261;SDS011;39658;51.090;-1.786;2023-05-10T03:31:19;7.78;;;1.40;;
53261;SDS011;39658;51.090;-1.786;2023-05-10T03:33:47;10.13;;;2.15;;
53261;SDS011;39658;51.090;-1.786;2023-05-10T03:36:14;12.68;;;2.03;;
53261;SDS011;39658;51.090;-1.786;2023-05-10T03:38:41;9.45;;;1.75;;
53261;SDS011;39658;51.090;-1.786;2023-05-10T03:41:08;11.82;;;2.25;;
53261;SDS011;39658;51.090;-1.786;2023-05-10T03:43:36;7.55;;;2.42;;
53261;SDS011;39658;51.090;-1.786;2023-05-10T03:46:03;12.75;;;2.50;;
53261;SDS011;39658;51.090;-1.786;2023-05-10T03:48:31;10.85;;;2.80;;
53261;SDS011;39658;51.090;-1.786;2023-05-10T03:50:58;21.73;;;2.17;;
53261;SDS011;39658;51.090;-1.786;2023-05-10T03:53:25;15.32;;;3.10;;
53261;SDS011;39658;51.090;-1.786;2023-05-10T03:55:52;13.45;;;1.85;;
53261;SDS011;39658;51.090;-1.786;2023-05-10T03:58:18;13.82;;;3.50;;
53261;SDS011;39658;51.090;-1.786;2023-05-10T04:00:47;18.15;;;2.20;;
53261;SDS011;39658;51.090;-1.786;2023-05-10T04:03:14;20.05;;;2.85;;
53261;SDS011;39658;51.090;-1.786;2023-05-10T04:05:40;14.40;;;3.05;;
53261;SDS011;39658;51.090;-1.786;2023-05-10T04:08:07;14.43;;;2.40;;
53261;SDS011;39658;51.090;-1.786;2023-05-10T04:10:34;19.98;;;2.85;;
53261;SDS011;39658;51.090;-1.786;2023-05-10T04:13:01;15.75;;;3.75;;
53261;SDS011;39658;51.090;-1.786;2023-05-10T04:15:27;14.68;;;2.58;;
53261;SDS011;39658;51.090;-1.786;2023-05-10T04:17:56;12.05;;;2.72;;
53261;SDS011;39658;51.090;-1.786;2023-05-10T04:20:22;5.35;;;2.15;;
53261;SDS011;39658;51.090;-1.786;2023-05-10T04:22:49;21.33;;;2.50;;
53261;SDS011;39658;51.090;-1.786;2023-05-10T04:25:16;9.18;;;1.75;;
53261;SDS011;39658;51.090;-1.786;2023-05-10T04:27:43;15.63;;;2.78;;
53261;SDS011;39658;51.090;-1.786;2023-05-10T04:30:10;11.55;;;3.00;;
53261;SDS011;39658;51.090;-1.786;2023-05-10T04:32:37;12.85;;;2.58;;
53261;SDS011;39658;51.090;-1.786;2023-05-10T04:35:05;17.45;;;2.22;;
53261;SDS011;39658;51.090;-1.786;2023-05-10T04:37:32;19.85;;;2.65;;
53261;SDS011;39658;51.090;-1.786;2023-05-10T04:39:59;14.65;;;2.42;;
53261;SDS011;39658;51.090;-1.786;2023-05-10T04:42:26;17.08;;;2.85;;
53261;SDS011;39658;51.090;-1.786;2023-05-10T04:44:53;24.65;;;3.47;;
53261;SDS011;39658;51.090;-1.786;2023-05-10T04:47:19;13.60;;;3.45;;
53261;SDS011;39658;51.090;-1.786;2023-05-10T04:49:46;16.42;;;3.50;;
53261;SDS011;39658;51.090;-1.786;2023-05-10T04:52:14;12.07;;;2.83;;
53261;SDS011;39658;51.090;-1.786;2023-05-10T04:54:42;8.40;;;2.78;;
53261;SDS011;39658;51.090;-1.786;2023-05-10T04:57:09;13.48;;;2.78;;
53261;SDS011;39658;51.090;-1.786;2023-05-10T04:59:36;10.10;;;3.20;;
53261;SDS011;39658;51.090;-1.786;2023-05-10T05:02:03;16.98;;;2.97;;
53261;SDS011;39658;51.090;-1.786;2023-05-10T05:04:30;15.73;;;3.72;;
53261;SDS011;39658;51.090;-1.786;2023-05-10T05:06:57;14.38;;;2.60;;
53261;SDS011;39658;51.090;-1.786;2023-05-10T05:09:25;8.00;;;2.80;;
53261;SDS011;39658;51.090;-1.786;2023-05-10T05:11:52;10.60;;;2.90;;
53261;SDS011;39658;51.090;-1.786;2023-05-10T05:14:19;8.15;;;2.22;;
53261;SDS011;39658;51.090;-1.786;2023-05-10T05:16:46;15.27;;;2.83;;
53261;SDS011;39658;51.090;-1.786;2023-05-10T05:19:12;11.95;;;2.80;;
53261;SDS011;39658;51.090;-1.786;2023-05-10T05:21:39;17.02;;;2.70;;
53261;SDS011;39658;51.090;-1.786;2023-05-10T05:24:06;23.73;;;3.10;;
53261;SDS011;39658;51.090;-1.786;2023-05-10T05:26:35;12.25;;;2.80;;
53261;SDS011;39658;51.090;-1.786;2023-05-10T05:29:01;27.60;;;3.33;;
53261;SDS011;39658;51.090;-1.786;2023-05-10T05:31:28;13.35;;;3.28;;
53261;SDS011;39658;51.090;-1.786;2023-05-10T05:33:55;8.93;;;3.28;;
53261;SDS011;39658;51.090;-1.786;2023-05-10T05:36:22;16.90;;;2.75;;
53261;SDS011;39658;51.090;-1.786;2023-05-10T05:38:49;21.80;;;3.80;;
53261;SDS011;39658;51.090;-1.786;2023-05-10T05:41:16;15.82;;;3.58;;
53261;SDS011;39658;51.090;-1.786;2023-05-10T05:43:44;21.55;;;4.00;;
53261;SDS011;39658;51.090;-1.786;2023-05-10T05:46:11;9.40;;;3.15;;
53261;SDS011;39658;51.090;-1.786;2023-05-10T05:48:37;20.65;;;3.47;;
53261;SDS011;39658;51.090;-1.786;2023-05-10T05:51:04;25.08;;;3.53;;
53261;SDS011;39658;51.090;-1.786;2023-05-10T05:53:31;22.67;;;3.97;;
53261;SDS011;39658;51.090;-1.786;2023-05-10T05:55:58;21.67;;;3.88;;
53261;SDS011;39658;51.090;-1.786;2023-05-10T05:58:25;16.05;;;3.88;;
53261;SDS011;39658;51.090;-1.786;2023-05-10T06:00:53;16.15;;;4.13;;
53261;SDS011;39658;51.090;-1.786;2023-05-10T06:03:20;22.60;;;4.35;;
53261;SDS011;39658;51.090;-1.786;2023-05-10T06:05:46;15.95;;;3.45;;
53261;SDS011;39658;51.090;-1.786;2023-05-10T06:08:13;18.65;;;4.80;;
53261;SDS011;39658;51.090;-1.786;2023-05-10T06:10:40;10.18;;;3.05;;
53261;SDS011;39658;51.090;-1.786;2023-05-10T06:13:07;16.40;;;3.05;;
53261;SDS011;39658;51.090;-1.786;2023-05-10T06:15:34;17.92;;;3.30;;
53261;SDS011;39658;51.090;-1.786;2023-05-10T06:18:02;15.65;;;2.72;;
53261;SDS011;39658;51.090;-1.786;2023-05-10T06:20:29;17.35;;;2.83;;
53261;SDS011;39658;51.090;-1.786;2023-05-10T06:22:57;18.85;;;3.22;;
53261;SDS011;39658;51.090;-1.786;2023-05-10T06:25:23;10.85;;;2.50;;
53261;SDS011;39658;51.090;-1.786;2023-05-10T06:27:50;19.60;;;2.67;;
53261;SDS011;39658;51.090;-1.786;2023-05-10T06:30:22;14.65;;;2.90;;
53261;SDS011;39658;51.090;-1.786;2023-05-10T06:35:20;12.18;;;3.00;;
53261;SDS011;39658;51.090;-1.786;2023-05-10T06:37:47;8.32;;;2.25;;
53261;SDS011;39658;51.090;-1.786;2023-05-10T06:40:14;10.82;;;2.40;;
53261;SDS011;39658;51.090;-1.786;2023-05-10T06:42:41;16.92;;;2.25;;
53261;SDS011;39658;51.090;-1.786;2023-05-10T06:45:10;9.90;;;2.15;;
53261;SDS011;39658;51.090;-1.786;2023-05-10T06:47:37;15.07;;;2.65;;
53261;SDS011;39658;51.090;-1.786;2023-05-10T06:50:04;14.90;;;3.03;;
53261;SDS011;39658;51.090;-1.786;2023-05-10T06:52:33;8.85;;;2.50;;
53261;SDS011;39658;51.090;-1.786;2023-05-10T06:54:59;11.73;;;2.33;;
53261;SDS011;39658;51.090;-1.786;2023-05-10T06:57:26;13.27;;;1.95;;
53261;SDS011;39658;51.090;-1.786;2023-05-10T06:59:53;14.02;;;2.17;;
53261;SDS011;39658;51.090;-1.786;2023-05-10T07:02:21;12.68;;;1.77;;
53261;SDS011;39658;51.090;-1.786;2023-05-10T07:04:48;6.75;;;1.70;;
53261;SDS011;39658;51.090;-1.786;2023-05-10T07:07:15;13.20;;;2.13;;
53261;SDS011;39658;51.090;-1.786;2023-05-10T07:09:43;11.68;;;2.03;;
53261;SDS011;39658;51.090;-1.786;2023-05-10T07:12:10;13.57;;;2.53;;
53261;SDS011;39658;51.090;-1.786;2023-05-10T07:14:36;9.30;;;1.30;;
53261;SDS011;39658;51.090;-1.786;2023-05-10T07:17:03;14.68;;;1.83;;
53261;SDS011;39658;51.090;-1.786;2023-05-10T07:19:30;6.85;;;1.77;;
53261;SDS011;39658;51.090;-1.786;2023-05-10T07:21:57;8.48;;;1.40;;
53261;SDS011;39658;51.090;-1.786;2023-05-10T07:24:24;10.50;;;1.80;;
53261;SDS011;39658;51.090;-1.786;2023-05-10T07:26:52;9.75;;;1.38;;
53261;SDS011;39658;51.090;-1.786;2023-05-10T07:29:19;5.63;;;1.05;;
53261;SDS011;39658;51.090;-1.786;2023-05-10T07:31:46;2.65;;;1.27;;
53261;SDS011;39658;51.090;-1.786;2023-05-10T07:34:13;9.93;;;1.58;;
53261;SDS011;39658;51.090;-1.786;2023-05-10T07:36:40;11.30;;;1.80;;
53261;SDS011;39658;51.090;-1.786;2023-05-10T07:39:07;6.93;;;1.67;;
53261;SDS011;39658;51.090;-1.786;2023-05-10T07:41:33;8.70;;;1.85;;
53261;SDS011;39658;51.090;-1.786;2023-05-10T07:44:04;14.23;;;2.00;;
53261;SDS011;39658;51.090;-1.786;2023-05-10T07:46:32;7.05;;;1.13;;
53261;SDS011;39658;51.090;-1.786;2023-05-10T07:48:59;14.68;;;1.50;;
53261;SDS011;39658;51.090;-1.786;2023-05-10T07:51:26;12.25;;;1.70;;
53261;SDS011;39658;51.090;-1.786;2023-05-10T07:53:53;7.47;;;1.50;;
53261;SDS011;39658;51.090;-1.786;2023-05-10T07:56:20;9.15;;;1.05;;
53261;SDS011;39658;51.090;-1.786;2023-05-10T07:58:48;8.77;;;0.93;;
53261;SDS011;39658;51.090;-1.786;2023-05-10T08:01:16;8.98;;;1.20;;
53261;SDS011;39658;51.090;-1.786;2023-05-10T08:03:43;2.88;;;1.42;;
53261;SDS011;39658;51.090;-1.786;2023-05-10T08:06:10;11.75;;;1.42;;
53261;SDS011;39658;51.090;-1.786;2023-05-10T08:08:37;15.20;;;2.33;;
53261;SDS011;39658;51.090;-1.786;2023-05-10T08:11:04;12.23;;;1.33;;
53261;SDS011;39658;51.090;-1.786;2023-05-10T08:13:30;8.07;;;1.63;;
53261;SDS011;39658;51.090;-1.786;2023-05-10T08:15:57;5.93;;;1.05;;
53261;SDS011;39658;51.090;-1.786;2023-05-10T08:18:26;6.75;;;1.30;;
53261;SDS011;39658;51.090;-1.786;2023-05-10T08:20:52;5.35;;;1.33;;
53261;SDS011;39658;51.090;-1.786;2023-05-10T08:23:19;6.85;;;1.27;;
53261;SDS011;39658;51.090;-1.786;2023-05-10T08:25:46;13.48;;;1.85;;
53261;SDS011;39658;51.090;-1.786;2023-05-10T08:28:12;9.27;;;1.20;;
53261;SDS011;39658;51.090;-1.786;2023-05-10T08:30:40;15.10;;;1.20;;
53261;SDS011;39658;51.090;-1.786;2023-05-10T08:33:06;8.52;;;1.00;;
53261;SDS011;39658;51.090;-1.786;2023-05-10T08:35:34;9.68;;;1.52;;
53261;SDS011;39658;51.090;-1.786;2023-05-10T08:38:01;10.50;;;1.30;;
53261;SDS011;39658;51.090;-1.786;2023-05-10T08:40:28;7.43;;;1.77;;
53261;SDS011;39658;51.090;-1.786;2023-05-10T08:42:55;8.75;;;1.23;;
53261;SDS011;39658;51.090;-1.786;2023-05-10T08:45:25;7.35;;;0.98;;
53261;SDS011;39658;51.090;-1.786;2023-05-10T08:47:58;6.40;;;1.05;;
53261;SDS011;39658;51.090;-1.786;2023-05-10T08:50:27;5.75;;;1.52;;
53261;SDS011;39658;51.090;-1.786;2023-05-10T08:52:57;11.15;;;1.40;;
53261;SDS011;39658;51.090;-1.786;2023-05-10T08:55:26;10.52;;;1.23;;
53261;SDS011;39658;51.090;-1.786;2023-05-10T08:57:53;13.60;;;1.25;;
53261;SDS011;39658;51.090;-1.786;2023-05-10T09:00:21;5.28;;;1.10;;
53261;SDS011;39658;51.090;-1.786;2023-05-10T09:02:49;9.63;;;1.02;;
53261;SDS011;39658;51.090;-1.786;2023-05-10T09:05:16;8.65;;;1.88;;
53261;SDS011;39658;51.090;-1.786;2023-05-10T09:07:43;10.93;;;1.30;;
53261;SDS011;39658;51.090;-1.786;2023-05-10T09:10:11;3.55;;;0.90;;
53261;SDS011;39658;51.090;-1.786;2023-05-10T09:12:40;6.70;;;1.20;;
53261;SDS011;39658;51.090;-1.786;2023-05-10T09:15:09;3.67;;;1.20;;
53261;SDS011;39658;51.090;-1.786;2023-05-10T09:17:36;2.72;;;0.98;;
53261;SDS011;39658;51.090;-1.786;2023-05-10T09:20:06;9.77;;;1.00;;
53261;SDS011;39658;51.090;-1.786;2023-05-10T09:22:33;4.18;;;1.05;;
53261;SDS011;39658;51.090;-1.786;2023-05-10T09:25:04;4.65;;;1.20;;
53261;SDS011;39658;51.090;-1.786;2023-05-10T09:27:34;12.95;;;1.00;;
53261;SDS011;39658;51.090;-1.786;2023-05-10T09:30:02;4.43;;;1.10;;
53261;SDS011;39658;51.090;-1.786;2023-05-10T09:32:38;3.05;;;0.88;;
53261;SDS011;39658;51.090;-1.786;2023-05-10T09:35:07;6.07;;;0.80;;
53261;SDS011;39658;51.090;-1.786;2023-05-10T09:37:34;3.90;;;1.25;;
53261;SDS011;39658;51.090;-1.786;2023-05-10T09:40:04;7.60;;;1.77;;
53261;SDS011;39658;51.090;-1.786;2023-05-10T09:42:33;3.30;;;1.02;;
53261;SDS011;39658;51.090;-1.786;2023-05-10T09:45:02;8.80;;;1.83;;
53261;SDS011;39658;51.090;-1.786;2023-05-10T09:47:31;8.63;;;1.02;;
53261;SDS011;39658;51.090;-1.786;2023-05-10T09:49:59;4.82;;;1.02;;
53261;SDS011;39658;51.090;-1.786;2023-05-10T09:52:28;5.43;;;1.10;;
53261;SDS011;39658;51.090;-1.786;2023-05-10T09:54:56;8.45;;;1.08;;
53261;SDS011;39658;51.090;-1.786;2023-05-10T09:57:23;4.57;;;1.17;;
53261;SDS011;39658;51.090;-1.786;2023-05-10T09:59:52;6.68;;;1.63;;
53261;SDS011;39658;51.090;-1.786;2023-05-10T10:02:20;6.05;;;1.88;;
53261;SDS011;39658;51.090;-1.786;2023-05-10T10:04:54;6.32;;;1.13;;
53261;SDS011;39658;51.090;-1.786;2023-05-10T10:07:22;3.50;;;0.93;;
53261;SDS011;39658;51.090;-1.786;2023-05-10T10:09:50;4.18;;;1.05;;
53261;SDS011;39658;51.090;-1.786;2023-05-10T10:12:18;5.78;;;0.95;;
53261;SDS011;39658;51.090;-1.786;2023-05-10T10:14:45;7.55;;;1.10;;
53261;SDS011;39658;51.090;-1.786;2023-05-10T10:17:14;4.03;;;1.33;;
53261;SDS011;39658;51.090;-1.786;2023-05-10T10:19:41;9.27;;;1.40;;
53261;SDS011;39658;51.090;-1.786;2023-05-10T10:22:08;2.63;;;0.90;;
53261;SDS011;39658;51.090;-1.786;2023-05-10T10:24:37;3.83;;;1.30;;
53261;SDS011;39658;51.090;-1.786;2023-05-10T10:27:09;5.45;;;1.02;;
53261;SDS011;39658;51.090;-1.786;2023-05-10T10:29:47;5.38;;;0.80;;
53261;SDS011;39658;51.090;-1.786;2023-05-10T10:32:27;5.32;;;1.23;;
53261;SDS011;39658;51.090;-1.786;2023-05-10T10:35:04;5.30;;;1.45;;
53261;SDS011;39658;51.090;-1.786;2023-05-10T10:37:44;14.70;;;1.42;;
53261;SDS011;39658;51.090;-1.786;2023-05-10T10:42:57;8.65;;;1.35;;
53261;SDS011;39658;51.090;-1.786;2023-05-10T10:45:24;11.60;;;1.65;;
53261;SDS011;39658;51.090;-1.786;2023-05-10T10:50:55;6.97;;;2.53;;
53261;SDS011;39658;51.090;-1.786;2023-05-10T10:53:25;5.57;;;1.08;;
53261;SDS011;39658;51.090;-1.786;2023-05-10T10:55:56;4.85;;;1.15;;
53261;SDS011;39658;51.090;-1.786;2023-05-10T10:58:32;5.10;;;0.95;;
53261;SDS011;39658;51.090;-1.786;2023-05-10T11:01:13;4.05;;;1.75;;
53261;SDS011;39658;51.090;-1.786;2023-05-10T11:03:54;5.07;;;1.25;;
53261;SDS011;39658;51.090;-1.786;2023-05-10T11:06:42;6.50;;;1.10;;
53261;SDS011;39658;51.090;-1.786;2023-05-10T11:09:10;7.32;;;0.98;;
53261;SDS011;39658;51.090;-1.786;2023-05-10T11:11:48;5.18;;;1.40;;
53261;SDS011;39658;51.090;-1.786;2023-05-10T11:14:15;2.28;;;0.95;;
53261;SDS011;39658;51.090;-1.786;2023-05-10T11:16:46;1.80;;;0.70;;
53261;SDS011;39658;51.090;-1.786;2023-05-10T11:19:15;1.27;;;0.50;;
53261;SDS011;39658;51.090;-1.786;2023-05-10T11:21:45;3.67;;;0.82;;
53261;SDS011;39658;51.090;-1.786;2023-05-10T11:24:14;5.78;;;0.80;;
53261;SDS011;39658;51.090;-1.786;2023-05-10T11:26:42;3.08;;;0.98;;
53261;SDS011;39658;51.090;-1.786;2023-05-10T11:29:09;4.18;;;1.08;;
53261;SDS011;39658;51.090;-1.786;2023-05-10T11:31:41;3.88;;;0.77;;
53261;SDS011;39658;51.090;-1.786;2023-05-10T11:34:10;3.85;;;0.90;;
53261;SDS011;39658;51.090;-1.786;2023-05-10T11:36:39;3.92;;;0.77;;
53261;SDS011;39658;51.090;-1.786;2023-05-10T11:39:05;11.15;;;1.13;;
53261;SDS011;39658;51.090;-1.786;2023-05-10T11:41:32;2.78;;;1.10;;
53261;SDS011;39658;51.090;-1.786;2023-05-10T11:43:59;4.32;;;1.02;;
53261;SDS011;39658;51.090;-1.786;2023-05-10T11:46:26;7.80;;;0.80;;
53261;SDS011;39658;51.090;-1.786;2023-05-10T11:48:55;4.35;;;0.55;;
53261;SDS011;39658;51.090;-1.786;2023-05-10T11:51:25;3.30;;;1.13;;
53261;SDS011;39658;51.090;-1.786;2023-05-10T11:53:54;1.67;;;0.70;;
53261;SDS011;39658;51.090;-1.786;2023-05-10T11:56:21;2.88;;;1.02;;
53261;SDS011;39658;51.090;-1.786;2023-05-10T11:58:52;5.15;;;1.25;;
53261;SDS011;39658;51.090;-1.786;2023-05-10T12:01:20;5.07;;;1.52;;
53261;SDS011;39658;51.090;-1.786;2023-05-10T12:03:47;4.30;;;1.00;;
53261;SDS011;39658;51.090;-1.786;2023-05-10T12:06:15;9.70;;;1.45;;
53261;SDS011;39658;51.090;-1.786;2023-05-10T12:08:44;5.72;;;0.82;;
53261;SDS011;39658;51.090;-1.786;2023-05-10T12:11:13;6.38;;;1.00;;
53261;SDS011;39658;51.090;-1.786;2023-05-10T12:13:41;9.27;;;1.10;;
53261;SDS011;39658;51.090;-1.786;2023-05-10T12:16:15;7.57;;;1.10;;
53261;SDS011;39658;51.090;-1.786;2023-05-10T12:18:43;3.58;;;0.77;;
53261;SDS011;39658;51.090;-1.786;2023-05-10T12:21:11;8.65;;;1.08;;
53261;SDS011;39658;51.090;-1.786;2023-05-10T12:23:38;4.93;;;1.38;;
53261;SDS011;39658;51.090;-1.786;2023-05-10T12:26:05;9.18;;;0.93;;
53261;SDS011;39658;51.090;-1.786;2023-05-10T12:28:36;7.28;;;1.10;;
53261;SDS011;39658;51.090;-1.786;2023-05-10T12:31:05;3.33;;;0.93;;
53261;SDS011;39658;51.090;-1.786;2023-05-10T12:33:35;6.13;;;0.85;;
53261;SDS011;39658;51.090;-1.786;2023-05-10T12:36:04;5.07;;;1.10;;
53261;SDS011;39658;51.090;-1.786;2023-05-10T12:38:32;6.35;;;0.93;;
53261;SDS011;39658;51.090;-1.786;2023-05-10T12:41:01;9.25;;;1.55;;
53261;SDS011;39658;51.090;-1.786;2023-05-10T12:43:29;8.43;;;1.33;;
53261;SDS011;39658;51.090;-1.786;2023-05-10T12:45:58;1.35;;;0.55;;
53261;SDS011;39658;51.090;-1.786;2023-05-10T12:48:25;5.22;;;0.75;;
53261;SDS011;39658;51.090;-1.786;2023-05-10T12:50:53;4.95;;;0.80;;
53261;SDS011;39658;51.090;-1.786;2023-05-10T12:53:20;2.80;;;1.08;;
53261;SDS011;39658;51.090;-1.786;2023-05-10T12:55:47;7.68;;;1.40;;
53261;SDS011;39658;51.090;-1.786;2023-05-10T12:58:14;11.50;;;1.30;;
53261;SDS011;39658;51.090;-1.786;2023-05-10T13:00:40;8.23;;;1.27;;
53261;SDS011;39658;51.090;-1.786;2023-05-10T13:03:10;7.90;;;1.20;;
53261;SDS011;39658;51.090;-1.786;2023-05-10T13:05:36;9.18;;;1.30;;
53261;SDS011;39658;51.090;-1.786;2023-05-10T13:08:04;9.48;;;1.33;;
53261;SDS011;39658;51.090;-1.786;2023-05-10T13:10:31;9.30;;;0.70;;
53261;SDS011;39658;51.090;-1.786;2023-05-10T13:12:58;12.95;;;1.35;;
53261;SDS011;39658;51.090;-1.786;2023-05-10T13:15:25;4.90;;;0.93;;
53261;SDS011;39658;51.090;-1.786;2023-05-10T13:17:52;3.83;;;1.05;;
53261;SDS011;39658;51.090;-1.786;2023-05-10T13:20:21;6.80;;;1.00;;
53261;SDS011;39658;51.090;-1.786;2023-05-10T13:22:48;6.15;;;1.10;;
53261;SDS011;39658;51.090;-1.786;2023-05-10T13:25:15;6.75;;;1.42;;
53261;SDS011;39658;51.090;-1.786;2023-05-10T13:27:41;4.80;;;1.15;;
53261;SDS011;39658;51.090;-1.786;2023-05-10T13:30:08;4.05;;;1.00;;
53261;SDS011;39658;51.090;-1.786;2023-05-10T13:32:36;1.67;;;0.85;;
53261;SDS011;39658;51.090;-1.786;2023-05-10T13:35:04;3.90;;;0.82;;
53261;SDS011;39658;51.090;-1.786;2023-05-10T13:37:33;2.78;;;0.50;;
53261;SDS011;39658;51.090;-1.786;2023-05-10T13:40:02;8.07;;;0.75;;
53261;SDS011;39658;51.090;-1.786;2023-05-10T13:42:30;3.80;;;0.75;;
53261;SDS011;39658;51.090;-1.786;2023-05-10T13:44:58;7.63;;;0.82;;
53261;SDS011;39658;51.090;-1.786;2023-05-10T13:47:25;1.88;;;0.60;;
53261;SDS011;39658;51.090;-1.786;2023-05-10T13:49:52;5.03;;;0.82;;
53261;SDS011;39658;51.090;-1.786;2023-05-10T13:52:19;4.80;;;1.13;;
53261;SDS011;39658;51.090;-1.786;2023-05-10T13:54:47;6.68;;;0.90;;
53261;SDS011;39658;51.090;-1.786;2023-05-10T13:57:14;3.85;;;0.93;;
53261;SDS011;39658;51.090;-1.786;2023-05-10T13:59:41;5.65;;;1.90;;
53261;SDS011;39658;51.090;-1.786;2023-05-10T14:02:08;1.40;;;0.70;;
53261;SDS011;39658;51.090;-1.786;2023-05-10T14:04:35;1.60;;;0.80;;
53261;SDS011;39658;51.090;-1.786;2023-05-10T14:07:02;3.55;;;0.90;;
53261;SDS011;39658;51.090;-1.786;2023-05-10T14:09:29;5.75;;;1.15;;
53261;SDS011;39658;51.090;-1.786;2023-05-10T14:11:57;1.58;;;0.50;;
53261;SDS011;39658;51.090;-1.786;2023-05-10T14:14:24;4.53;;;0.50;;
53261;SDS011;39658;51.090;-1.786;2023-05-10T14:16:51;3.95;;;0.82;;
53261;SDS011;39658;51.090;-1.786;2023-05-10T14:19:18;1.35;;;0.43;;
53261;SDS011;39658;51.090;-1.786;2023-05-10T14:21:45;1.77;;;0.40;;
53261;SDS011;39658;51.090;-1.786;2023-05-10T14:24:11;2.08;;;0.82;;
53261;SDS011;39658;51.090;-1.786;2023-05-10T14:26:38;0.80;;;0.55;;
53261;SDS011;39658;51.090;-1.786;2023-05-10T14:29:06;1.75;;;0.90;;
53261;SDS011;39658;51.090;-1.786;2023-05-10T14:31:33;1.60;;;0.50;;
53261;SDS011;39658;51.090;-1.786;2023-05-10T14:34:00;3.70;;;0.82;;
53261;SDS011;39658;51.090;-1.786;2023-05-10T14:36:27;1.45;;;0.43;;
53261;SDS011;39658;51.090;-1.786;2023-05-10T14:38:54;2.13;;;0.38;;
53261;SDS011;39658;51.090;-1.786;2023-05-10T14:41:21;2.95;;;0.55;;
53261;SDS011;39658;51.090;-1.786;2023-05-10T14:43:48;4.57;;;0.45;;